createdAt,value
2022-08-16T00:01:26.458Z,17.60
2022-08-16T00:03:57.104Z,17.70
2022-08-16T00:06:27.343Z,17.60
2022-08-16T00:08:55.484Z,17.60
2022-08-16T00:11:23.754Z,17.50
2022-08-16T00:13:52.422Z,17.50
2022-08-16T00:17:06.561Z,17.50
2022-08-16T00:19:13.577Z,17.50
2022-08-16T00:21:44.341Z,17.40
2022-08-16T00:24:13.361Z,17.40
2022-08-16T00:26:59.638Z,17.40
2022-08-16T00:29:29.686Z,17.40
2022-08-16T00:32:00.112Z,17.40
2022-08-16T00:34:43.196Z,17.40
2022-08-16T00:37:24.302Z,17.40
2022-08-16T00:39:57.370Z,17.30
2022-08-16T00:42:29.786Z,17.30
2022-08-16T00:45:08.677Z,17.20
2022-08-16T00:47:49.508Z,17.20
2022-08-16T00:50:20.335Z,17.10
2022-08-16T00:52:51.032Z,17.10
2022-08-16T00:55:22.598Z,17.10
2022-08-16T00:57:58.761Z,17.10
2022-08-16T01:00:30.025Z,17.10
2022-08-16T01:03:01.110Z,17.10
2022-08-16T01:05:29.843Z,17.00
2022-08-16T01:07:59.789Z,17.10
2022-08-16T01:10:32.653Z,17.00
2022-08-16T01:13:06.169Z,17.00
2022-08-16T01:15:35.257Z,16.90
2022-08-16T01:18:06.018Z,16.80
2022-08-16T01:20:39.095Z,16.80
2022-08-16T01:23:17.813Z,16.80
2022-08-16T01:25:59.827Z,16.80
2022-08-16T01:28:30.784Z,16.80
2022-08-16T01:31:00.940Z,16.80
2022-08-16T01:33:33.494Z,16.70
2022-08-16T01:36:09.551Z,16.70
2022-08-16T01:38:48.979Z,16.70
2022-08-16T01:41:25.912Z,16.70
2022-08-16T01:44:01.108Z,16.70
2022-08-16T01:46:39.661Z,16.60
2022-08-16T01:49:12.878Z,16.60
2022-08-16T01:51:45.150Z,16.50
2022-08-16T01:54:15.346Z,16.40
2022-08-16T01:56:45.435Z,16.40
2022-08-16T01:59:16.962Z,16.40
2022-08-16T02:01:49.791Z,16.40
2022-08-16T02:04:48.628Z,16.40
2022-08-16T02:07:11.421Z,16.40
2022-08-16T02:09:40.956Z,16.30
2022-08-16T02:12:49.769Z,16.30
2022-08-16T02:15:00.393Z,16.30
2022-08-16T02:17:29.281Z,16.30
2022-08-16T02:20:00.521Z,16.30
2022-08-16T02:22:34.124Z,16.30
2022-08-16T02:25:10.605Z,16.30
2022-08-16T02:27:41.566Z,16.20
2022-08-16T02:30:37.229Z,16.20
2022-08-16T02:33:03.898Z,16.10
2022-08-16T02:35:32.965Z,16.10
2022-08-16T02:38:08.913Z,16.10
2022-08-16T02:40:37.966Z,16.10
2022-08-16T02:43:08.165Z,16.10
2022-08-16T02:45:36.214Z,16.10
2022-08-16T02:48:28.969Z,16.10
2022-08-16T02:51:06.004Z,16.00
2022-08-16T02:53:37.087Z,16.00
2022-08-16T02:56:09.933Z,16.00
2022-08-16T02:58:39.621Z,16.00
2022-08-16T03:01:12.667Z,16.00
2022-08-16T03:04:39.254Z,16.00
2022-08-16T03:06:42.156Z,16.10
2022-08-16T03:09:14.753Z,16.00
2022-08-16T03:11:43.326Z,16.00
2022-08-16T03:14:13.214Z,16.00
2022-08-16T03:16:42.368Z,16.00
2022-08-16T03:19:47.241Z,16.00
2022-08-16T03:22:18.880Z,15.90
2022-08-16T03:24:57.267Z,16.00
2022-08-16T03:27:30.950Z,15.90
2022-08-16T03:30:02.564Z,15.90
2022-08-16T03:32:47.342Z,15.90
2022-08-16T03:35:17.866Z,15.80
2022-08-16T03:38:01.397Z,15.80
2022-08-16T03:40:33.280Z,15.80
2022-08-16T03:43:20.345Z,15.80
2022-08-16T03:45:53.398Z,15.80
2022-08-16T03:48:40.427Z,15.80
2022-08-16T03:51:12.976Z,15.70
2022-08-16T03:53:41.809Z,15.70
2022-08-16T03:56:20.762Z,15.70
2022-08-16T03:58:50.949Z,15.70
2022-08-16T04:01:22.482Z,15.70
2022-08-16T04:03:51.210Z,15.70
2022-08-16T04:06:21.871Z,15.70
2022-08-16T04:08:49.896Z,15.60
2022-08-16T04:11:19.525Z,15.60
2022-08-16T04:14:00.265Z,15.60
2022-08-16T04:16:38.098Z,15.60
2022-08-16T04:19:06.146Z,15.60
2022-08-16T04:21:46.098Z,15.60
2022-08-16T04:24:16.127Z,15.60
2022-08-16T04:26:46.338Z,15.60
2022-08-16T04:29:24.562Z,15.60
2022-08-16T04:31:56.185Z,15.60
2022-08-16T04:34:27.458Z,15.60
2022-08-16T04:36:56.692Z,15.60
2022-08-16T04:39:44.932Z,15.60
2022-08-16T04:42:13.603Z,15.70
2022-08-16T04:44:57.509Z,15.70
2022-08-16T04:47:35.580Z,15.80
2022-08-16T04:50:05.019Z,16.40
2022-08-16T04:52:35.851Z,17.00
2022-08-16T04:55:07.923Z,17.40
2022-08-16T04:57:37.026Z,17.90
2022-08-16T05:00:32.118Z,18.20
2022-08-16T05:03:02.721Z,18.40
2022-08-16T05:05:44.929Z,18.80
2022-08-16T05:08:29.400Z,19.10
2022-08-16T05:11:00.690Z,19.40
2022-08-16T05:13:41.338Z,19.70
2022-08-16T05:16:19.927Z,19.90
2022-08-16T05:18:52.256Z,20.20
2022-08-16T05:21:22.122Z,20.50
2022-08-16T05:23:51.560Z,20.70
2022-08-16T05:26:24.954Z,20.90
2022-08-16T05:28:56.684Z,21.30
2022-08-16T05:31:29.576Z,21.50
2022-08-16T05:34:01.171Z,21.70
2022-08-16T05:36:33.778Z,21.70
2022-08-16T05:39:06.043Z,21.40
2022-08-16T05:41:34.159Z,21.20
2022-08-16T05:44:23.804Z,21.10
2022-08-16T05:46:54.588Z,20.90
2022-08-16T05:49:25.140Z,20.60
2022-08-16T05:51:55.486Z,20.50
2022-08-16T05:54:26.091Z,20.40
2022-08-16T05:56:55.805Z,20.10
2022-08-16T05:59:24.511Z,20.00
2022-08-16T06:01:55.154Z,19.80
2022-08-16T06:04:35.138Z,19.90
2022-08-16T06:07:08.878Z,20.10
2022-08-16T06:09:52.596Z,20.10
2022-08-16T06:12:26.835Z,20.00
2022-08-16T06:14:58.742Z,20.10
2022-08-16T06:17:42.972Z,20.40
2022-08-16T06:20:18.435Z,20.90
2022-08-16T06:22:58.482Z,21.60
2022-08-16T06:25:36.321Z,22.20
2022-08-16T06:28:09.559Z,22.50
2022-08-16T06:30:43.617Z,22.90
2022-08-16T06:33:19.914Z,23.20
2022-08-16T06:35:55.116Z,23.60
2022-08-16T06:38:32.355Z,23.80
2022-08-16T06:41:04.171Z,24.00
2022-08-16T06:43:32.390Z,24.30
2022-08-16T06:46:03.878Z,24.30
2022-08-16T06:48:33.752Z,24.40
2022-08-16T06:51:04.560Z,24.50
2022-08-16T06:53:36.471Z,24.60
2022-08-16T06:56:14.728Z,24.70
2022-08-16T06:58:52.478Z,25.10
2022-08-16T07:01:43.245Z,25.10
2022-08-16T07:04:10.449Z,25.20
2022-08-16T07:06:43.219Z,25.30
2022-08-16T07:09:12.579Z,25.30
2022-08-16T07:11:48.238Z,25.40
2022-08-16T07:14:23.804Z,25.50
2022-08-16T07:16:55.751Z,25.70
2022-08-16T07:20:01.867Z,25.70
2022-08-16T07:22:37.811Z,25.90
2022-08-16T07:25:06.819Z,25.90
2022-08-16T07:27:37.293Z,26.10
2022-08-16T07:30:39.342Z,26.30
2022-08-16T07:32:57.215Z,26.30
2022-08-16T07:35:26.173Z,26.50
2022-08-16T07:37:55.630Z,26.50
2022-08-16T07:40:49.004Z,26.60
2022-08-16T07:43:12.067Z,27.00
2022-08-16T07:45:43.098Z,26.70
2022-08-16T07:48:12.418Z,26.50
2022-08-16T07:50:55.673Z,26.50
2022-08-16T07:53:28.997Z,26.70
2022-08-16T07:55:57.528Z,26.80
2022-08-16T07:58:34.153Z,27.00
2022-08-16T08:01:10.377Z,26.90
2022-08-16T08:03:42.578Z,26.90
2022-08-16T08:06:13.419Z,26.80
2022-08-16T08:08:50.424Z,26.60
2022-08-16T08:11:21.372Z,26.50
2022-08-16T08:13:50.931Z,26.40
2022-08-16T08:16:21.310Z,26.40
2022-08-16T08:18:55.838Z,26.30
2022-08-16T08:21:26.396Z,26.20
2022-08-16T08:23:58.144Z,26.00
2022-08-16T08:26:26.307Z,26.10
2022-08-16T08:29:00.814Z,26.10
2022-08-16T08:31:29.925Z,26.10
2022-08-16T08:33:59.961Z,26.10
2022-08-16T08:36:33.197Z,26.30
2022-08-16T08:39:03.952Z,26.40
2022-08-16T08:41:42.443Z,26.50
2022-08-16T08:44:28.007Z,26.60
2022-08-16T08:47:00.036Z,26.60
2022-08-16T08:49:46.437Z,26.60
2022-08-16T08:52:34.404Z,26.50
2022-08-16T08:55:09.058Z,26.50
2022-08-16T08:57:40.757Z,26.60
2022-08-16T09:00:13.453Z,26.60
2022-08-16T09:02:44.388Z,26.70
2022-08-16T09:05:15.338Z,26.60
2022-08-16T09:07:54.714Z,26.70
2022-08-16T09:10:30.557Z,26.50
2022-08-16T09:12:58.976Z,26.50
2022-08-16T09:15:32.836Z,26.50
2022-08-16T09:18:25.114Z,26.60
2022-08-16T09:20:58.508Z,26.60
2022-08-16T09:23:29.537Z,26.70
2022-08-16T09:25:59.129Z,26.70
2022-08-16T09:29:13.643Z,26.70
2022-08-16T09:31:17.697Z,26.60
2022-08-16T09:33:51.872Z,26.60
2022-08-16T09:36:32.169Z,26.50
2022-08-16T09:39:02.434Z,26.60
2022-08-16T09:41:32.666Z,26.70
2022-08-16T09:45:09.478Z,26.80
2022-08-16T09:46:57.445Z,26.70
2022-08-16T09:49:36.926Z,26.80
2022-08-16T09:52:06.162Z,26.80
2022-08-16T09:54:37.905Z,26.90
2022-08-16T09:57:12.282Z,26.80
2022-08-16T09:59:42.162Z,26.80
2022-08-16T10:02:26.938Z,26.80
2022-08-16T10:04:57.466Z,26.90
2022-08-16T10:07:26.129Z,26.90
2022-08-16T10:10:11.182Z,26.90
2022-08-16T10:12:58.347Z,27.00
2022-08-16T10:15:30.270Z,27.00
2022-08-16T10:18:02.508Z,27.00
2022-08-16T10:20:49.819Z,27.10
2022-08-16T10:23:18.068Z,27.20
2022-08-16T10:27:16.553Z,27.20
2022-08-16T10:28:40.190Z,27.10
2022-08-16T10:31:14.435Z,27.00
2022-08-16T10:33:45.250Z,27.10
2022-08-16T10:36:39.236Z,27.20
2022-08-16T10:39:02.939Z,27.30
2022-08-16T10:41:32.550Z,27.30
2022-08-16T10:44:02.279Z,27.40
2022-08-16T10:46:39.208Z,27.40
2022-08-16T10:49:10.980Z,27.30
2022-08-16T10:52:03.239Z,27.30
2022-08-16T10:54:29.753Z,27.50
2022-08-16T10:57:06.138Z,27.60
2022-08-16T10:59:51.781Z,27.50
2022-08-16T11:02:58.320Z,27.50
2022-08-16T11:05:16.785Z,27.60
2022-08-16T11:07:52.237Z,27.70
2022-08-16T11:13:57.417Z,27.70
2022-08-16T11:19:05.663Z,27.90
2022-08-16T11:24:42.019Z,27.90
2022-08-16T11:27:23.211Z,27.90
2022-08-16T11:29:55.077Z,27.90
2022-08-16T11:32:31.594Z,27.90
2022-08-16T11:35:10.350Z,28.00
2022-08-16T11:40:40.629Z,28.10
2022-08-16T11:43:12.527Z,28.20
2022-08-16T11:45:42.621Z,28.10
2022-08-16T11:48:14.028Z,28.20
2022-08-16T11:50:43.887Z,28.20
2022-08-16T11:53:12.863Z,28.20
2022-08-16T11:55:44.154Z,28.20
2022-08-16T11:58:14.379Z,28.20
2022-08-16T12:00:50.599Z,28.20
2022-08-16T12:03:31.622Z,28.10
2022-08-16T12:06:11.225Z,28.10
2022-08-16T12:08:53.154Z,28.10
2022-08-16T12:11:21.817Z,28.20
2022-08-16T12:13:50.805Z,28.30
2022-08-16T12:16:20.737Z,28.40
2022-08-16T12:18:50.676Z,28.40
2022-08-16T12:21:19.683Z,28.50
2022-08-16T12:23:47.803Z,28.40
2022-08-16T12:26:17.242Z,28.40
2022-08-16T12:28:54.864Z,28.40
2022-08-16T12:31:26.057Z,28.50
2022-08-16T12:33:57.612Z,28.70
2022-08-16T12:36:29.748Z,28.80
2022-08-16T12:38:59.120Z,28.80
2022-08-16T12:41:27.477Z,28.90
2022-08-16T12:43:57.098Z,29.00
2022-08-16T12:46:29.107Z,28.90
2022-08-16T12:49:00.642Z,28.90
2022-08-16T12:51:57.976Z,29.10
2022-08-16T12:54:23.666Z,29.20
2022-08-16T12:56:51.711Z,29.10
2022-08-16T12:59:21.917Z,29.20
2022-08-16T13:01:55.365Z,29.20
2022-08-16T13:04:33.311Z,29.30
2022-08-16T13:09:42.575Z,29.30
2022-08-16T13:12:19.794Z,29.50
2022-08-16T13:14:50.116Z,29.60
2022-08-16T13:17:21.541Z,29.50
2022-08-16T13:20:09.423Z,29.70
2022-08-16T13:22:42.245Z,29.80
2022-08-16T13:25:18.908Z,29.90
2022-08-16T13:28:02.180Z,29.90
2022-08-16T13:30:41.265Z,29.90
2022-08-16T13:33:13.447Z,29.60
2022-08-16T13:35:56.082Z,29.60
2022-08-16T13:38:26.940Z,29.60
2022-08-16T13:40:57.789Z,29.50
2022-08-16T13:43:26.851Z,29.50
2022-08-16T13:45:56.280Z,29.50
2022-08-16T13:48:25.920Z,29.50
2022-08-16T13:50:58.711Z,29.40
2022-08-16T13:53:32.449Z,29.50
2022-08-16T13:56:00.698Z,29.30
2022-08-16T13:58:34.960Z,29.30
2022-08-16T14:01:09.458Z,29.40
2022-08-16T14:03:38.627Z,29.50
2022-08-16T14:06:10.513Z,29.50
2022-08-16T14:08:42.000Z,29.50
2022-08-16T14:11:12.199Z,29.40
2022-08-16T14:13:40.625Z,29.40
2022-08-16T14:16:12.738Z,29.20
2022-08-16T14:18:53.178Z,29.10
2022-08-16T14:21:24.057Z,29.00
2022-08-16T14:23:53.036Z,28.90
2022-08-16T14:26:21.472Z,28.90
2022-08-16T14:28:51.030Z,28.90
2022-08-16T14:31:20.053Z,28.80
2022-08-16T14:33:48.109Z,28.80
2022-08-16T14:36:18.840Z,28.70
2022-08-16T14:38:54.754Z,28.60
2022-08-16T14:41:22.788Z,28.60
2022-08-16T14:43:51.145Z,28.60
2022-08-16T14:46:19.321Z,28.60
2022-08-16T14:48:47.446Z,28.50
2022-08-16T14:51:15.877Z,28.50
2022-08-16T14:53:45.660Z,28.50
2022-08-16T14:56:39.114Z,28.40
2022-08-16T14:59:08.537Z,28.40
2022-08-16T15:01:57.591Z,28.30
2022-08-16T15:04:32.427Z,28.30
2022-08-16T15:07:10.168Z,28.30
2022-08-16T15:09:44.785Z,28.30
2022-08-16T15:12:34.206Z,28.40
2022-08-16T15:15:13.155Z,28.40
2022-08-16T15:17:55.998Z,28.40
2022-08-16T15:20:26.732Z,28.40
2022-08-16T15:22:55.371Z,28.40
2022-08-16T15:25:29.532Z,28.40
2022-08-16T15:28:00.811Z,28.40
2022-08-16T15:30:57.362Z,28.40
2022-08-16T15:33:21.699Z,28.30
2022-08-16T15:35:52.585Z,28.20
2022-08-16T15:38:55.117Z,28.10
2022-08-16T15:41:13.369Z,28.10
2022-08-16T15:43:42.883Z,28.10
2022-08-16T15:46:35.028Z,28.00
2022-08-16T15:49:12.361Z,28.00
2022-08-16T15:51:41.209Z,28.00
2022-08-16T15:54:29.236Z,28.00
2022-08-16T15:57:04.270Z,28.00
2022-08-16T15:59:49.043Z,27.90
2022-08-16T16:02:29.695Z,27.90
2022-08-16T16:05:01.826Z,27.80
2022-08-16T16:07:32.097Z,27.80
2022-08-16T16:10:03.087Z,27.70
2022-08-16T16:12:51.145Z,27.70
2022-08-16T16:15:22.851Z,27.70
2022-08-16T16:17:52.516Z,27.70
2022-08-16T16:20:22.080Z,27.70
2022-08-16T16:22:52.817Z,27.70
2022-08-16T16:25:21.207Z,27.70
2022-08-16T16:27:55.923Z,27.80
2022-08-16T16:30:33.101Z,27.80
2022-08-16T16:33:06.594Z,27.80
2022-08-16T16:35:36.277Z,27.90
2022-08-16T16:38:08.175Z,27.90
2022-08-16T16:40:46.618Z,27.90
2022-08-16T16:43:25.365Z,27.80
2022-08-16T16:45:55.635Z,27.80
2022-08-16T16:48:29.615Z,27.80
2022-08-16T16:51:09.119Z,27.80
2022-08-16T16:53:41.034Z,27.80
2022-08-16T16:56:19.615Z,27.80
2022-08-16T16:58:57.026Z,27.70
2022-08-16T17:01:51.063Z,27.70
2022-08-16T17:04:27.424Z,27.60
2022-08-16T17:07:00.489Z,27.50
2022-08-16T17:09:28.591Z,27.30
2022-08-16T17:11:58.281Z,27.30
2022-08-16T17:14:33.292Z,27.20
2022-08-16T17:17:06.687Z,27.10
2022-08-16T17:19:40.072Z,27.00
2022-08-16T17:22:14.912Z,27.00
2022-08-16T17:24:57.225Z,26.90
2022-08-16T17:27:32.696Z,26.80
2022-08-16T17:30:03.019Z,26.80
2022-08-16T17:32:47.856Z,26.70
2022-08-16T17:35:19.675Z,26.60
2022-08-16T17:37:50.838Z,26.50
2022-08-16T17:40:45.870Z,26.40
2022-08-16T17:43:13.315Z,26.40
2022-08-16T17:45:42.440Z,26.30
2022-08-16T17:48:12.210Z,26.30
2022-08-16T17:50:41.863Z,26.20
2022-08-16T17:53:11.162Z,26.20
2022-08-16T17:55:42.346Z,26.10
2022-08-16T17:58:22.854Z,26.10
2022-08-16T18:00:53.190Z,26.00
2022-08-16T18:04:07.946Z,25.90
2022-08-16T18:06:16.864Z,25.80
2022-08-16T18:08:48.361Z,25.70
2022-08-16T18:11:26.186Z,25.60
2022-08-16T18:13:56.459Z,25.60
2022-08-16T18:16:24.845Z,25.50
2022-08-16T18:18:54.552Z,25.40
2022-08-16T18:21:40.583Z,25.30
2022-08-16T18:24:09.614Z,25.20
2022-08-16T18:26:38.563Z,25.10
2022-08-16T18:29:07.215Z,25.00
2022-08-16T18:31:35.756Z,24.90
2022-08-16T18:34:05.985Z,24.80
2022-08-16T18:36:34.578Z,24.70
2022-08-16T18:39:02.963Z,24.60
2022-08-16T18:41:33.569Z,24.50
2022-08-16T18:44:26.668Z,24.40
2022-08-16T18:46:50.963Z,24.30
2022-08-16T18:49:20.978Z,24.20
2022-08-16T18:51:50.793Z,24.10
2022-08-16T18:54:19.263Z,24.00
2022-08-16T18:56:55.874Z,24.00
2022-08-16T18:59:25.860Z,23.90
2022-08-16T19:01:54.029Z,23.70
2022-08-16T19:04:47.411Z,23.60
2022-08-16T19:07:18.883Z,23.50
2022-08-16T19:09:46.970Z,23.40
2022-08-16T19:12:16.031Z,23.30
2022-08-16T19:14:45.478Z,23.20
2022-08-16T19:17:13.675Z,23.20
2022-08-16T19:19:43.021Z,23.10
2022-08-16T19:22:11.051Z,23.10
2022-08-16T19:24:39.539Z,23.00
2022-08-16T19:27:12.846Z,22.80
2022-08-16T19:29:40.858Z,22.80
2022-08-16T19:32:17.490Z,22.80
2022-08-16T19:34:46.910Z,22.70
2022-08-16T19:37:15.018Z,22.60
2022-08-16T19:39:43.435Z,22.60
2022-08-16T19:42:13.999Z,22.50
2022-08-16T19:44:42.377Z,22.50
2022-08-16T19:47:10.513Z,22.40
2022-08-16T19:49:38.856Z,22.30
2022-08-16T19:52:13.648Z,22.30
2022-08-16T19:54:41.752Z,22.20
2022-08-16T19:57:10.477Z,22.10
2022-08-16T19:59:40.369Z,22.00
2022-08-16T20:02:23.669Z,21.90
2022-08-16T20:05:06.329Z,21.90
2022-08-16T20:07:35.786Z,21.80
2022-08-16T20:10:03.845Z,21.80
2022-08-16T20:12:31.876Z,21.70
2022-08-16T20:15:00.267Z,21.60
2022-08-16T20:17:28.290Z,21.50
2022-08-16T20:19:56.271Z,21.50
2022-08-16T20:22:51.904Z,21.40
2022-08-16T20:25:19.101Z,21.40
2022-08-16T20:27:56.259Z,21.40
2022-08-16T20:30:24.656Z,21.40
2022-08-16T20:32:54.192Z,21.30
2022-08-16T20:35:28.680Z,21.20
2022-08-16T20:37:57.051Z,21.10
2022-08-16T20:40:34.703Z,21.10
2022-08-16T20:43:06.604Z,21.00
2022-08-16T20:45:35.370Z,20.90
2022-08-16T20:48:03.680Z,20.90
2022-08-16T20:50:32.056Z,20.90
2022-08-16T20:53:00.233Z,20.90
2022-08-16T20:55:29.988Z,20.80
2022-08-16T20:57:58.303Z,20.70
2022-08-16T21:00:26.470Z,20.70
2022-08-16T21:02:54.521Z,20.60
2022-08-16T21:05:24.686Z,20.60
2022-08-16T21:07:55.875Z,20.50
2022-08-16T21:10:24.763Z,20.40
2022-08-16T21:12:56.343Z,20.40
2022-08-16T21:15:27.082Z,20.40
2022-08-16T21:17:55.144Z,20.40
2022-08-16T21:20:26.096Z,20.40
2022-08-16T21:22:55.274Z,20.40
2022-08-16T21:25:24.761Z,20.30
2022-08-16T21:28:39.061Z,20.30
2022-08-16T21:30:43.172Z,20.30
2022-08-16T21:33:13.216Z,20.30
2022-08-16T21:35:43.319Z,20.20
2022-08-16T21:38:29.931Z,20.20
2022-08-16T21:40:58.613Z,20.20
2022-08-16T21:43:32.280Z,20.20
2022-08-16T21:46:01.254Z,20.20
2022-08-16T21:48:33.804Z,20.10
2022-08-16T21:51:02.784Z,20.10
2022-08-16T21:53:30.796Z,20.00
2022-08-16T21:55:59.977Z,20.00
2022-08-16T21:58:30.810Z,19.90
2022-08-16T22:00:59.036Z,19.90
2022-08-16T22:03:27.134Z,19.90
2022-08-16T22:06:11.534Z,19.80
2022-08-16T22:08:46.739Z,19.90
2022-08-16T22:11:19.550Z,19.90
2022-08-16T22:13:49.283Z,19.90
2022-08-16T22:16:27.020Z,19.80
2022-08-16T22:18:55.206Z,19.80
2022-08-16T22:21:23.259Z,19.80
2022-08-16T22:23:56.720Z,19.70
2022-08-16T22:26:30.386Z,19.70
2022-08-16T22:29:01.669Z,19.60
2022-08-16T22:31:30.175Z,19.60
2022-08-16T22:33:58.504Z,19.60
2022-08-16T22:36:29.025Z,19.60
2022-08-16T22:38:58.842Z,19.50
2022-08-16T22:41:28.256Z,19.50
2022-08-16T22:43:56.314Z,19.50
2022-08-16T22:46:25.847Z,19.50
2022-08-16T22:48:53.900Z,19.50
2022-08-16T22:51:23.583Z,19.50
2022-08-16T22:53:52.693Z,19.50
2022-08-16T22:56:21.009Z,19.40
2022-08-16T22:58:49.216Z,19.40
2022-08-16T23:01:18.808Z,19.30
2022-08-16T23:03:48.245Z,19.30
2022-08-16T23:06:17.529Z,19.30
2022-08-16T23:08:45.622Z,19.30
2022-08-16T23:11:21.193Z,19.30
2022-08-16T23:13:53.417Z,19.30
2022-08-16T23:16:25.095Z,19.20
2022-08-16T23:19:03.227Z,19.20
2022-08-16T23:21:31.955Z,19.20
2022-08-16T23:24:00.063Z,19.10
2022-08-16T23:26:44.354Z,19.10
2022-08-16T23:29:23.275Z,19.10
2022-08-16T23:31:53.844Z,19.10
2022-08-16T23:34:23.757Z,19.10
2022-08-16T23:36:51.894Z,19.10
2022-08-16T23:39:19.939Z,19.00
2022-08-16T23:41:47.993Z,19.00
2022-08-16T23:44:55.358Z,18.90
2022-08-16T23:47:06.049Z,19.00
2022-08-16T23:49:56.468Z,18.90
2022-08-16T23:52:42.124Z,18.90
2022-08-16T23:55:11.761Z,18.90
2022-08-16T23:57:39.789Z,18.80
